Time;durP1;ratioP1;P1;durP2;ratioP2;P2;SDS_P1;SDS_P2;PMS_P1;PMS_P2;Temp;Humidity;BMP_temperature;BMP_pressure;BME280_temperature;BME280_humidity;BME280_pressure;Samples;Min_cycle;Max_cycle;Signal;HPM_P1;HPM_P2
2022/12/28 00:01:07;;;;;;;8.67;4.40;;;;;;;4.72;100.00;101492.50;5262338;28;20048;-68
2022/12/28 00:03:39;;;;;;;11.68;4.43;;;;;;;4.76;100.00;101489.16;5262787;28;20444;-68
2022/12/28 00:06:11;;;;;;;8.00;4.93;;;;;;;4.80;100.00;101495.25;5261703;28;20039;-68
2022/12/28 00:08:43;;;;;;;12.35;4.93;;;;;;;4.83;100.00;101479.81;5261985;28;20476;-70
2022/12/28 00:11:17;;;;;;;15.33;5.67;;;;;;;4.88;100.00;101480.81;5261855;28;20061;-71
2022/12/28 00:13:48;;;;;;;9.18;4.47;;;;;;;4.90;100.00;101461.03;5261976;28;20440;-69
2022/12/28 00:16:34;;;;;;;11.67;5.57;;;;;;;5.00;100.00;101468.13;5262894;28;20143;-69
2022/12/28 00:19:13;;;;;;;7.18;3.90;;;;;;;5.04;100.00;101453.56;5266230;28;20083;-69
2022/12/28 00:21:45;;;;;;;10.85;4.35;;;;;;;5.04;100.00;101433.78;5265765;28;20037;-70
2022/12/28 00:24:20;;;;;;;10.48;4.63;;;;;;;5.02;100.00;101440.59;5264387;28;20032;-69
2022/12/28 00:26:52;;;;;;;7.72;4.07;;;;;;;5.05;100.00;101414.84;5265270;28;20035;-69
2022/12/28 00:29:23;;;;;;;10.77;4.90;;;;;;;5.04;100.00;101407.06;5265809;28;20033;-70
2022/12/28 00:31:54;;;;;;;9.40;4.87;;;;;;;5.02;100.00;101409.59;5265083;28;20025;-71
2022/12/28 00:34:26;;;;;;;9.40;4.50;;;;;;;5.02;100.00;101408.75;5264810;28;20037;-69
2022/12/28 00:36:57;;;;;;;8.37;4.30;;;;;;;5.08;100.00;101401.97;5265482;28;20029;-69
2022/12/28 00:39:29;;;;;;;11.20;4.70;;;;;;;5.15;100.00;101397.78;5265287;28;20033;-69
2022/12/28 00:42:00;;;;;;;9.73;5.20;;;;;;;5.21;100.00;101407.41;5265256;28;20047;-69
2022/12/28 00:44:32;;;;;;;13.10;5.70;;;;;;;5.28;100.00;101404.97;5247767;28;20064;-69
2022/12/28 00:47:03;;;;;;;9.30;4.20;;;;;;;5.27;100.00;101402.34;5265250;28;20029;-69
2022/12/28 00:49:35;;;;;;;11.20;5.03;;;;;;;5.33;100.00;101388.66;5265175;28;20120;-69
2022/12/28 00:52:06;;;;;;;9.93;4.67;;;;;;;5.37;100.00;101387.88;5265137;28;20476;-68
2022/12/28 00:54:37;;;;;;;7.13;3.80;;;;;;;5.39;100.00;101381.00;5265068;28;20025;-68
2022/12/28 00:57:09;;;;;;;9.17;4.27;;;;;;;5.43;100.00;101370.75;5265353;28;20440;-69
2022/12/28 00:59:40;;;;;;;8.60;4.50;;;;;;;5.46;100.00;101370.81;5265283;28;20044;-68
2022/12/28 01:02:11;;;;;;;9.73;5.43;;;;;;;5.46;100.00;101368.22;5264927;28;20036;-67
2022/12/28 01:04:43;;;;;;;9.57;5.07;;;;;;;5.46;100.00;101365.63;5265017;28;20029;-68
2022/12/28 01:07:14;;;;;;;7.90;4.33;;;;;;;5.50;100.00;101363.13;5264858;28;20029;-68
2022/12/28 01:09:45;;;;;;;12.13;4.37;;;;;;;5.53;100.00;101353.69;5264771;28;20029;-68
2022/12/28 01:12:17;;;;;;;8.60;4.10;;;;;;;5.53;100.00;101358.00;5264836;28;20032;-68
2022/12/28 01:14:48;;;;;;;11.10;5.13;;;;;;;5.51;100.00;101350.22;5265110;28;20087;-68
2022/12/28 01:17:20;;;;;;;14.80;5.27;;;;;;;5.53;100.00;101353.69;5264321;28;20503;-69
2022/12/28 01:19:51;;;;;;;9.70;4.53;;;;;;;5.59;100.00;101350.34;5264836;28;20483;-68
2022/12/28 01:22:22;;;;;;;11.93;4.67;;;;;;;5.62;100.00;101340.06;5264539;28;20107;-68
2022/12/28 01:24:54;;;;;;;9.00;4.63;;;;;;;5.62;100.00;101342.63;5264760;28;20037;-68
2022/12/28 01:27:25;;;;;;;12.00;5.37;;;;;;;5.63;100.00;101339.19;5264022;28;20369;-68
2022/12/28 01:29:56;;;;;;;7.83;4.23;;;;;;;5.64;100.00;101344.38;5262532;28;20032;-68
2022/12/28 01:32:28;;;;;;;5.87;4.13;;;;;;;5.68;100.00;101326.34;5264603;28;20021;-68
2022/12/28 01:34:59;;;;;;;7.43;4.53;;;;;;;5.71;100.00;101326.38;5264449;28;20072;-67
2022/12/28 01:37:31;;;;;;;7.63;4.23;;;;;;;5.74;100.00;101321.25;5264007;28;20029;-68
2022/12/28 01:40:04;;;;;;;8.90;4.20;;;;;;;5.75;100.00;101325.59;5264216;28;20037;-68
2022/12/28 01:42:38;;;;;;;9.48;4.50;;;;;;;5.79;100.00;101315.31;5263831;28;20430;-68
2022/12/28 01:45:18;;;;;;;6.30;3.63;;;;;;;5.84;100.00;101317.97;5263992;28;20044;-69
2022/12/28 01:47:53;;;;;;;5.90;3.92;;;;;;;5.80;100.00;101309.28;5264225;28;20419;-69
2022/12/28 01:50:27;;;;;;;7.97;3.90;;;;;;;5.85;100.00;101324.88;5263883;28;20045;-69
2022/12/28 01:53:03;;;;;;;9.55;3.95;;;;;;;5.87;100.00;101297.31;5264146;28;20029;-69
2022/12/28 01:55:40;;;;;;;9.65;4.10;;;;;;;5.87;100.00;101296.44;5263933;28;20429;-69
2022/12/28 01:58:21;;;;;;;7.43;4.20;;;;;;;5.97;100.00;101295.75;5263825;28;20036;-68
2022/12/28 02:00:53;;;;;;;9.55;4.65;;;;;;;5.99;100.00;101294.09;5263877;28;20103;-69
2022/12/28 02:03:27;;;;;;;7.50;4.10;;;;;;;5.99;100.00;101276.84;5262868;28;20045;-69
2022/12/28 02:06:02;;;;;;;6.30;3.53;;;;;;;6.02;100.00;101273.41;5263210;28;20392;-70
2022/12/28 02:08:56;;;;;;;6.75;4.05;;;;;;;6.08;100.00;101270.03;5263515;28;20043;-69
2022/12/28 02:11:28;;;;;;;6.00;3.30;;;;;;;6.08;100.00;101265.72;5263276;28;20029;-69
2022/12/28 02:14:01;;;;;;;7.03;3.83;;;;;;;6.08;100.00;101257.09;5263396;28;20033;-69
2022/12/28 02:16:33;;;;;;;8.23;3.67;;;;;;;6.08;100.00;101234.66;5264012;28;20079;-67
2022/12/28 02:19:06;;;;;;;7.10;3.37;;;;;;;6.14;100.00;101239.91;5263586;28;20065;-67
2022/12/28 02:22:19;;;;;;;6.28;3.15;;;;;;;6.17;100.00;101234.78;5263391;28;20476;-66
2022/12/28 02:24:50;;;;;;;9.27;4.13;;;;;;;6.17;100.00;101223.56;5235271;28;20434;-67
2022/12/28 02:28:10;;;;;;;7.40;3.73;;;;;;;6.18;100.00;101222.69;5263069;28;20032;-68
2022/12/28 02:31:01;;;;;;;7.45;3.45;;;;;;;6.06;100.00;101212.22;5216619;28;20045;-68
2022/12/28 02:33:38;;;;;;;6.43;3.88;;;;;;;5.96;100.00;101204.31;5263147;28;20484;-68
2022/12/28 02:36:21;;;;;;;8.48;4.10;;;;;;;5.98;100.00;101194.00;5261610;28;20077;-68
2022/12/28 02:39:27;;;;;;;8.60;3.72;;;;;;;5.97;100.00;101172.44;5263102;28;20064;-68
2022/12/28 02:41:59;;;;;;;5.93;3.33;;;;;;;5.98;100.00;101183.66;5263384;28;20041;-67
2022/12/28 02:50:14;;;;;;;7.47;4.20;;;;;;;5.90;100.00;101196.44;5263327;28;20041;-68
2022/12/28 02:53:11;;;;;;;7.68;4.63;;;;;;;5.83;100.00;101185.16;5262549;28;20035;-67
2022/12/28 02:56:07;;;;;;;9.30;5.20;;;;;;;5.77;100.00;101172.13;5263285;28;20361;-67
2022/12/28 02:58:46;;;;;;;7.97;4.63;;;;;;;5.75;100.00;101166.06;5262912;28;20153;-67
2022/12/28 03:01:56;;;;;;;9.90;5.43;;;;;;;5.77;100.00;101169.53;5260993;28;20057;-68
2022/12/28 03:04:30;;;;;;;15.23;6.88;;;;;;;5.73;100.00;101162.59;5263027;28;20032;-68
2022/12/28 03:10:14;;;;;;;10.07;5.38;;;;;;;5.73;100.00;101164.31;5262796;28;20037;-68
2022/12/28 03:13:04;;;;;;;8.53;5.67;;;;;;;5.67;100.00;101167.69;5263093;28;20033;-67
2022/12/28 03:15:36;;;;;;;10.60;6.32;;;;;;;5.68;100.00;101153.03;5262034;28;20040;-68
2022/12/28 03:32:41;;;;;;;15.30;7.90;;;;;;;5.77;100.00;101143.69;5262422;28;20119;-67
2022/12/28 03:35:15;;;;;;;14.53;7.03;;;;;;;5.79;100.00;101138.53;5261675;28;20377;-68
2022/12/28 03:37:59;;;;;;;9.40;6.50;;;;;;;5.78;100.00;101136.78;5261956;28;20032;-67
2022/12/28 03:40:47;;;;;;;12.00;7.35;;;;;;;5.83;100.00;101129.97;5262009;28;20111;-68
2022/12/28 03:43:41;;;;;;;10.07;7.85;;;;;;;5.79;100.00;101123.00;5262129;28;20083;-68
2022/12/28 03:46:18;;;;;;;9.95;7.07;;;;;;;5.85;100.00;101134.28;5262571;28;20555;-69
2022/12/28 03:48:51;;;;;;;11.02;6.82;;;;;;;5.86;100.00;101132.59;5262787;28;20025;-68
2022/12/28 03:51:24;;;;;;;14.98;6.50;;;;;;;5.87;100.00;101142.06;5261918;28;20528;-68
2022/12/28 03:53:56;;;;;;;9.45;7.20;;;;;;;5.88;100.00;101114.50;5265135;28;20039;-68
2022/12/28 03:56:28;;;;;;;22.07;9.23;;;;;;;5.89;100.00;101101.56;5266221;28;20119;-68
2022/12/28 03:58:59;;;;;;;13.50;7.50;;;;;;;5.92;100.00;101095.56;5266483;28;20051;-67
2022/12/28 04:01:30;;;;;;;15.70;7.50;;;;;;;5.93;100.00;101105.06;5266513;28;20056;-68
2022/12/28 04:04:02;;;;;;;11.13;7.77;;;;;;;5.96;100.00;101102.50;5265816;28;20136;-67
2022/12/28 04:06:33;;;;;;;17.00;7.07;;;;;;;5.98;100.00;101106.00;5266104;28;20483;-68
2022/12/28 04:09:05;;;;;;;13.83;6.90;;;;;;;5.97;100.00;101099.09;5265815;28;20037;-68
2022/12/28 04:11:36;;;;;;;10.30;7.83;;;;;;;6.01;100.00;101095.69;5266086;28;20025;-69
2022/12/28 04:14:08;;;;;;;9.97;7.00;;;;;;;6.07;100.00;101100.94;5265472;28;20072;-68
2022/12/28 04:16:39;;;;;;;11.47;6.33;;;;;;;6.12;100.00;101090.66;5265882;28;20033;-68
2022/12/28 04:19:11;;;;;;;12.90;6.47;;;;;;;6.12;100.00;101101.00;5265783;28;20488;-68
2022/12/28 04:21:42;;;;;;;12.67;6.77;;;;;;;6.14;100.00;101099.28;5266099;28;20368;-69
2022/12/28 04:24:13;;;;;;;7.70;5.60;;;;;;;6.17;100.00;101097.59;5265627;28;20037;-68
2022/12/28 04:26:45;;;;;;;9.23;5.60;;;;;;;6.22;100.00;101092.47;5265505;28;20029;-68
2022/12/28 04:29:16;;;;;;;13.77;5.33;;;;;;;6.27;100.00;101095.97;5265606;28;20037;-69
2022/12/28 04:31:48;;;;;;;13.67;5.73;;;;;;;6.27;100.00;101098.53;5265493;28;20029;-68
2022/12/28 04:34:19;;;;;;;9.03;5.80;;;;;;;6.32;100.00;101101.19;5265433;28;20047;-69
2022/12/28 04:36:50;;;;;;;7.53;5.37;;;;;;;6.38;100.00;101103.84;5265131;28;20373;-70
2022/12/28 04:39:22;;;;;;;10.53;5.47;;;;;;;6.37;100.00;101102.94;5265825;28;20037;-69
2022/12/28 04:41:53;;;;;;;8.03;5.33;;;;;;;6.37;100.00;101094.31;5265415;28;20025;-68
2022/12/28 04:44:24;;;;;;;8.97;5.87;;;;;;;6.45;100.00;101095.25;5265317;28;20071;-69
2022/12/28 04:46:56;;;;;;;7.57;4.93;;;;;;;6.48;100.00;101091.84;5265401;28;20032;-68
2022/12/28 04:49:27;;;;;;;8.73;6.20;;;;;;;6.52;100.00;101101.34;5265413;28;20103;-68
2022/12/28 04:51:58;;;;;;;12.30;6.27;;;;;;;6.50;100.00;101090.97;5265192;28;20035;-68
2022/12/28 04:54:30;;;;;;;14.57;6.33;;;;;;;6.51;100.00;101081.50;5264840;28;20036;-68
2022/12/28 04:57:01;;;;;;;10.70;6.17;;;;;;;6.52;100.00;101098.78;5265056;28;20120;-68
2022/12/28 04:59:33;;;;;;;12.10;6.00;;;;;;;6.57;100.00;101092.78;5264611;28;20068;-67
2022/12/28 05:02:05;;;;;;;10.90;5.90;;;;;;;6.56;100.00;101091.03;5264554;28;20103;-67
2022/12/28 05:04:36;;;;;;;9.13;5.95;;;;;;;6.54;100.00;101089.31;5264847;28;20087;-67
2022/12/28 05:07:07;;;;;;;10.60;5.63;;;;;;;6.57;100.00;101082.44;5264982;28;20025;-67
2022/12/28 05:09:39;;;;;;;14.73;5.87;;;;;;;6.57;100.00;101085.03;5263636;28;20029;-67
2022/12/28 05:12:10;;;;;;;8.80;5.57;;;;;;;6.61;100.00;101074.69;5264449;28;20048;-67
2022/12/28 05:14:43;;;;;;;8.73;6.13;;;;;;;6.54;100.00;101072.03;5264882;28;20033;-67
2022/12/28 05:17:14;;;;;;;13.75;6.45;;;;;;;6.53;100.00;101072.88;5264747;28;20033;-67
2022/12/28 05:19:46;;;;;;;10.70;6.77;;;;;;;6.53;100.00;101065.13;5265305;28;20025;-67
2022/12/28 05:22:17;;;;;;;10.00;6.23;;;;;;;6.57;100.00;101082.44;5264604;28;20120;-66
2022/12/28 05:24:48;;;;;;;11.97;6.80;;;;;;;6.57;100.00;101082.44;5264221;28;20060;-67
2022/12/28 05:27:20;;;;;;;11.27;6.47;;;;;;;6.59;100.00;101079.00;5264914;28;20461;-67
2022/12/28 05:29:51;;;;;;;11.17;6.60;;;;;;;6.56;100.00;101066.88;5264532;28;20029;-67
2022/12/28 05:32:22;;;;;;;11.13;6.90;;;;;;;6.59;100.00;101089.34;5264428;28;20166;-68
2022/12/28 05:34:54;;;;;;;10.80;6.87;;;;;;;6.61;100.00;101069.50;5264018;28;20041;-67
2022/12/28 05:37:26;;;;;;;11.20;7.37;;;;;;;6.59;100.00;101064.31;5264203;28;20383;-68
2022/12/28 05:39:57;;;;;;;11.80;7.93;;;;;;;6.64;100.00;101066.94;5264210;28;20546;-68
2022/12/28 05:42:28;;;;;;;12.00;7.10;;;;;;;6.66;100.00;101078.19;5264282;28;20437;-68
2022/12/28 05:45:00;;;;;;;10.67;7.70;;;;;;;6.67;100.00;101078.19;5264332;28;20037;-68
2022/12/28 05:47:31;;;;;;;12.37;6.70;;;;;;;6.66;100.00;101070.41;5264145;28;20025;-67
2022/12/28 05:50:03;;;;;;;12.20;7.37;;;;;;;6.66;100.00;101071.25;5263775;28;20102;-68
2022/12/28 05:52:35;;;;;;;9.00;6.50;;;;;;;6.68;100.00;101073.88;5264111;28;20037;-68
2022/12/28 05:55:06;;;;;;;9.80;7.10;;;;;;;6.67;100.00;101072.16;5263816;28;20079;-68
2022/12/28 05:57:38;;;;;;;10.07;6.63;;;;;;;6.71;100.00;101066.13;5264435;28;20476;-68
2022/12/28 06:00:10;;;;;;;10.60;6.80;;;;;;;6.72;100.00;101067.88;5263766;28;20045;-67
2022/12/28 06:02:41;;;;;;;11.93;6.73;;;;;;;6.75;100.00;101066.16;5263832;28;20067;-68
2022/12/28 06:05:13;;;;;;;11.07;6.33;;;;;;;6.73;100.00;101051.47;5263524;28;20388;-68
2022/12/28 06:07:44;;;;;;;10.60;6.70;;;;;;;6.75;100.00;101063.56;5263792;28;20112;-67
2022/12/28 06:10:15;;;;;;;10.03;5.63;;;;;;;6.74;100.00;101050.59;5263602;28;20029;-67
2022/12/28 06:12:47;;;;;;;9.67;5.93;;;;;;;6.73;100.00;101049.75;5263595;28;20033;-67
2022/12/28 06:15:18;;;;;;;8.93;6.10;;;;;;;6.74;100.00;101048.00;5261785;28;20083;-68
2022/12/28 06:17:52;;;;;;;8.17;6.23;;;;;;;6.75;100.00;101042.84;5263344;28;20039;-67
2022/12/28 06:20:23;;;;;;;7.70;5.40;;;;;;;6.80;100.00;101027.34;5263162;28;20334;-68
2022/12/28 06:22:54;;;;;;;9.60;6.80;;;;;;;6.78;100.00;101031.66;5263147;28;20056;-67
2022/12/28 06:25:26;;;;;;;9.10;5.87;;;;;;;6.81;100.00;101018.72;5263480;28;20075;-67
2022/12/28 06:27:57;;;;;;;9.50;6.50;;;;;;;6.82;100.00;101019.56;5263599;28;20029;-67
2022/12/28 06:30:28;;;;;;;9.37;6.00;;;;;;;6.81;100.00;101017.81;5263677;28;20037;-68
2022/12/28 06:33:00;;;;;;;11.27;5.70;;;;;;;6.83;100.00;101024.75;5262763;28;20021;-68
2022/12/28 06:35:32;;;;;;;9.20;6.10;;;;;;;6.82;100.00;101015.25;5262915;28;20037;-67
2022/12/28 06:38:03;;;;;;;10.93;6.67;;;;;;;6.82;100.00;101009.22;5263026;28;20384;-68
2022/12/28 06:40:34;;;;;;;9.47;6.07;;;;;;;6.82;100.00;101015.25;5263739;28;20108;-68
2022/12/28 06:43:06;;;;;;;11.00;6.37;;;;;;;6.84;100.00;101004.88;5262881;28;20162;-68
2022/12/28 06:45:37;;;;;;;15.30;7.83;;;;;;;6.83;100.00;101008.34;5263352;28;20049;-68
2022/12/28 06:48:08;;;;;;;8.77;6.33;;;;;;;6.87;100.00;101005.75;5263088;28;20029;-67
2022/12/28 06:50:39;;;;;;;9.47;6.77;;;;;;;6.87;100.00;101007.50;5263440;28;20048;-67
2022/12/28 06:53:11;;;;;;;10.57;6.40;;;;;;;6.88;100.00;101007.50;5262760;28;20048;-67
2022/12/28 06:55:42;;;;;;;10.90;6.20;;;;;;;6.87;100.00;100999.72;5262701;28;20041;-67
2022/12/28 06:58:13;;;;;;;9.83;6.43;;;;;;;6.88;100.00;101007.50;5262869;28;20032;-68
2022/12/28 07:00:45;;;;;;;12.17;6.70;;;;;;;6.91;100.00;101001.50;5262353;28;20049;-68
2022/12/28 07:03:16;;;;;;;10.83;6.67;;;;;;;6.89;100.00;101004.06;5262574;28;20102;-68
2022/12/28 07:05:48;;;;;;;10.87;6.23;;;;;;;6.92;100.00;100995.44;5262693;28;20126;-68
2022/12/28 07:08:19;;;;;;;10.57;6.03;;;;;;;6.94;100.00;100997.19;5263146;28;20039;-69
2022/12/28 07:10:51;;;;;;;10.30;6.10;;;;;;;6.92;100.00;101001.50;5262546;28;20044;-68
2022/12/28 07:13:22;;;;;;;9.30;6.40;;;;;;;6.94;100.00;100985.97;5262464;28;20037;-68
2022/12/28 07:15:53;;;;;;;12.23;6.40;;;;;;;6.99;100.00;100998.91;5261583;28;20033;-68
2022/12/28 07:18:25;;;;;;;8.30;5.83;;;;;;;6.99;100.00;101007.59;5262692;28;20114;-68
2022/12/28 07:21:02;;;;;;;10.23;6.67;;;;;;;6.94;100.00;100989.41;5262222;28;20037;-69
2022/12/28 07:23:34;;;;;;;9.88;6.05;;;;;;;6.97;100.00;100980.81;5262487;28;20029;-68
2022/12/28 07:26:08;;;;;;;8.67;6.20;;;;;;;6.99;100.00;100992.03;5262403;28;20104;-69
2022/12/28 07:28:44;;;;;;;9.02;5.45;;;;;;;6.97;100.00;100983.38;5262582;28;20066;-68
2022/12/28 07:31:22;;;;;;;9.43;6.35;;;;;;;7.00;100.00;101006.72;5262334;28;20036;-68
2022/12/28 07:33:55;;;;;;;7.80;5.22;;;;;;;6.99;100.00;100999.81;5262353;28;20356;-68
2022/12/28 07:36:29;;;;;;;8.98;5.20;;;;;;;7.02;100.00;100991.16;5262583;28;20036;-68
2022/12/28 07:39:01;;;;;;;9.07;5.03;;;;;;;7.03;100.00;101003.28;5261732;28;20037;-70
2022/12/28 07:41:33;;;;;;;7.87;4.90;;;;;;;7.02;100.00;100998.94;5261778;28;20029;-68
2022/12/28 07:44:05;;;;;;;6.78;4.95;;;;;;;7.02;100.00;100997.25;5261943;28;20025;-69
2022/12/28 07:46:36;;;;;;;8.85;5.97;;;;;;;7.02;100.00;100989.47;5261497;28;20094;-69
2022/12/28 07:49:08;;;;;;;8.40;5.57;;;;;;;7.00;100.00;100983.38;5261933;28;20371;-69
2022/12/28 07:51:39;;;;;;;6.23;4.63;;;;;;;7.09;100.00;100992.94;5262166;28;20076;-68
2022/12/28 07:54:10;;;;;;;7.10;5.70;;;;;;;7.09;100.00;100998.13;5260416;28;20041;-69
2022/12/28 07:56:42;;;;;;;7.10;5.20;;;;;;;7.09;100.00;100998.13;5244183;28;20341;-69
2022/12/28 07:59:13;;;;;;;7.10;4.93;;;;;;;7.07;100.00;101013.66;5262255;28;20183;-69
2022/12/28 08:01:45;;;;;;;8.63;5.50;;;;;;;7.07;100.00;100992.94;5261804;28;20104;-70
2022/12/28 08:04:17;;;;;;;8.33;5.00;;;;;;;7.11;100.00;100999.84;5261897;28;20109;-69
2022/12/28 08:06:48;;;;;;;9.80;5.03;;;;;;;7.14;100.00;100991.22;5261746;28;20117;-70
2022/12/28 08:09:19;;;;;;;7.97;5.20;;;;;;;7.14;100.00;100988.63;5261573;28;20055;-69
2022/12/28 08:11:51;;;;;;;11.80;5.83;;;;;;;7.15;100.00;100999.88;5260984;28;20118;-69
2022/12/28 08:14:22;;;;;;;8.63;5.40;;;;;;;7.16;100.00;100992.09;5262154;28;20482;-69
2022/12/28 08:16:54;;;;;;;8.00;5.07;;;;;;;7.16;100.00;100994.69;5261513;28;20134;-69
2022/12/28 08:19:25;;;;;;;10.30;4.90;;;;;;;7.19;100.00;100992.13;5261311;28;20167;-69
2022/12/28 08:21:56;;;;;;;7.83;5.00;;;;;;;7.18;100.00;100968.78;5261562;28;20040;-68
2022/12/28 08:24:28;;;;;;;7.60;5.03;;;;;;;7.18;100.00;100977.44;5261677;28;20040;-68
2022/12/28 08:26:59;;;;;;;11.80;5.20;;;;;;;7.23;100.00;100993.00;5261102;28;20025;-69
2022/12/28 08:29:30;;;;;;;11.47;6.87;;;;;;;7.22;100.00;100994.72;5261447;28;20041;-69
2022/12/28 08:32:02;;;;;;;11.13;5.60;;;;;;;7.21;100.00;100981.75;5260685;28;20025;-69
2022/12/28 08:34:33;;;;;;;11.23;5.23;;;;;;;7.21;100.00;100987.81;5261633;28;20061;-69
2022/12/28 08:37:04;;;;;;;10.33;5.73;;;;;;;7.22;100.00;100983.50;5261375;28;20114;-68
2022/12/28 08:39:36;;;;;;;8.33;5.33;;;;;;;7.27;100.00;100982.63;5265554;28;20041;-68
2022/12/28 08:42:07;;;;;;;13.30;5.57;;;;;;;7.27;100.00;100977.44;5263608;28;20029;-69
2022/12/28 08:44:38;;;;;;;10.63;6.07;;;;;;;7.30;100.00;100982.66;5265525;28;20029;-68
2022/12/28 08:47:10;;;;;;;12.07;5.27;;;;;;;7.30;100.00;100990.44;5265166;28;20066;-67
2022/12/28 08:49:43;;;;;;;13.83;5.80;;;;;;;7.32;100.00;100980.06;5264854;28;20087;-67
2022/12/28 08:52:14;;;;;;;10.98;5.50;;;;;;;7.33;100.00;100973.19;5264761;28;20039;-68
2022/12/28 08:54:46;;;;;;;13.83;5.63;;;;;;;7.30;100.00;100994.75;5264774;28;20032;-68
2022/12/28 08:57:17;;;;;;;12.73;4.97;;;;;;;7.30;100.00;100977.47;5265085;28;20044;-68
2022/12/28 08:59:48;;;;;;;11.27;5.03;;;;;;;7.29;100.00;100991.31;5264741;28;20025;-68
2022/12/28 09:02:20;;;;;;;8.23;5.33;;;;;;;7.31;100.00;100991.31;5264579;28;20052;-69
2022/12/28 09:04:52;;;;;;;9.73;5.47;;;;;;;7.33;100.00;100986.13;5264388;28;20049;-71
2022/12/28 09:07:24;;;;;;;14.20;6.10;;;;;;;7.30;100.00;100986.97;5264642;28;20526;-69
2022/12/28 09:09:55;;;;;;;9.60;5.70;;;;;;;7.30;100.00;100976.59;5264689;28;20483;-69
2022/12/28 09:12:26;;;;;;;9.97;5.40;;;;;;;7.32;100.00;100995.63;5264492;28;20521;-68
2022/12/28 09:14:58;;;;;;;9.20;5.23;;;;;;;7.35;100.00;100987.00;5264688;28;20488;-68
2022/12/28 09:17:29;;;;;;;8.70;4.60;;;;;;;7.35;100.00;100972.31;5263430;28;20048;-68
2022/12/28 09:20:00;;;;;;;16.50;5.37;;;;;;;7.36;100.00;100974.03;5264156;28;20491;-67
2022/12/28 09:22:32;;;;;;;10.23;4.93;;;;;;;7.35;100.00;100982.69;5264581;28;20475;-67
2022/12/28 09:25:04;;;;;;;10.27;5.03;;;;;;;7.37;100.00;100986.13;5264128;28;20076;-68
2022/12/28 09:27:35;;;;;;;11.47;5.33;;;;;;;7.38;100.00;100994.81;5265090;28;20029;-68
2022/12/28 09:30:07;;;;;;;9.73;5.57;;;;;;;7.38;100.00;101005.19;5263839;28;20029;-68
2022/12/28 09:32:39;;;;;;;8.35;4.40;;;;;;;7.40;100.00;100999.09;5264046;28;20033;-68
2022/12/28 09:35:10;;;;;;;8.93;5.17;;;;;;;7.40;100.00;100988.75;5264066;28;20485;-68
2022/12/28 09:37:41;;;;;;;8.10;4.27;;;;;;;7.42;100.00;100986.16;5262891;28;20032;-68
2022/12/28 09:40:13;;;;;;;10.57;4.03;;;;;;;7.44;100.00;100993.09;5263885;28;20024;-69
2022/12/28 09:42:44;;;;;;;7.43;4.27;;;;;;;7.48;100.00;100983.59;5264308;28;20044;-69
2022/12/28 09:45:20;;;;;;;8.63;3.70;;;;;;;7.49;100.00;100993.09;5263624;28;20025;-67
2022/12/28 09:47:57;;;;;;;6.32;3.33;;;;;;;7.49;100.00;100986.19;5264160;28;20024;-68
2022/12/28 09:50:34;;;;;;;9.70;3.72;;;;;;;7.56;100.00;100997.44;5262752;28;20029;-70
2022/12/28 09:53:05;;;;;;;6.07;2.90;;;;;;;7.57;100.00;100991.41;5264291;28;20433;-70
2022/12/28 09:55:39;;;;;;;5.60;3.03;;;;;;;7.58;100.00;100987.97;5263932;28;20028;-68
2022/12/28 09:58:15;;;;;;;5.07;2.78;;;;;;;7.58;100.00;100985.38;5263766;28;20021;-69
2022/12/28 10:00:54;;;;;;;4.90;2.92;;;;;;;7.67;100.00;100987.09;5263292;28;20044;-69
2022/12/28 10:03:38;;;;;;;8.07;3.17;;;;;;;7.65;100.00;100978.47;5263665;28;20476;-68
2022/12/28 10:06:16;;;;;;;4.55;3.05;;;;;;;7.62;100.00;100986.22;5263718;28;20085;-68
2022/12/28 10:08:51;;;;;;;4.00;2.97;;;;;;;7.62;100.00;100984.50;5263587;28;20025;-68
2022/12/28 10:11:38;;;;;;;6.18;2.95;;;;;;;7.59;100.00;100978.44;5264201;28;20177;-69
2022/12/28 10:14:29;;;;;;;13.18;4.63;;;;;;;7.62;100.00;100974.13;5263837;28;20118;-69
2022/12/28 10:17:01;;;;;;;4.65;3.17;;;;;;;7.61;100.00;100977.56;5263698;28;20102;-70
2022/12/28 10:19:32;;;;;;;7.85;3.65;;;;;;;7.62;100.00;100975.84;5263544;28;20024;-69
2022/12/28 10:22:07;;;;;;;4.77;3.53;;;;;;;7.62;100.00;100957.69;5263019;28;20044;-69
2022/12/28 10:24:39;;;;;;;4.07;2.85;;;;;;;7.65;100.00;100965.47;5263392;28;20048;-69
2022/12/28 10:27:21;;;;;;;4.90;2.87;;;;;;;7.64;100.00;100964.59;5263130;28;20033;-69
2022/12/28 10:29:54;;;;;;;5.32;3.40;;;;;;;7.63;100.00;100969.78;5263065;28;20025;-70
2022/12/28 10:32:25;;;;;;;6.13;3.47;;;;;;;7.64;100.00;100962.00;5262920;28;20059;-69
2022/12/28 10:34:59;;;;;;;6.07;4.07;;;;;;;7.65;100.00;100976.72;5262969;28;20448;-71
2022/12/28 10:37:35;;;;;;;5.68;3.50;;;;;;;7.64;100.00;100954.22;5263324;28;20033;-68
2022/12/28 10:40:26;;;;;;;6.75;3.78;;;;;;;7.61;100.00;100956.81;5263168;28;20424;-68
2022/12/28 10:42:59;;;;;;;5.45;3.70;;;;;;;7.63;100.00;100960.28;5262899;28;20049;-67
2022/12/28 10:45:47;;;;;;;5.72;3.50;;;;;;;7.67;100.00;100961.16;5262633;28;20074;-68
2022/12/28 10:48:23;;;;;;;6.82;3.92;;;;;;;7.67;100.00;100953.38;5263184;28;20036;-68
2022/12/28 10:50:59;;;;;;;10.38;4.82;;;;;;;7.65;100.00;100948.19;5263026;28;20106;-68
2022/12/28 10:53:39;;;;;;;9.98;4.43;;;;;;;7.67;100.00;100950.78;5263073;28;20113;-68
2022/12/28 10:56:13;;;;;;;6.68;3.65;;;;;;;7.71;100.00;100951.63;5262876;28;20372;-68
2022/12/28 10:58:47;;;;;;;7.80;5.15;;;;;;;7.71;100.00;100946.44;5262558;28;20021;-68
2022/12/28 11:01:18;;;;;;;8.90;4.65;;;;;;;7.70;100.00;100947.34;5260540;28;20496;-69
2022/12/28 11:03:56;;;;;;;9.07;5.20;;;;;;;7.71;100.00;100938.66;5262693;28;20024;-69
2022/12/28 11:06:33;;;;;;;7.13;4.68;;;;;;;7.72;100.00;100945.59;5262887;28;20028;-68
2022/12/28 11:09:24;;;;;;;6.75;4.80;;;;;;;7.69;100.00;100943.84;5263305;28;20112;-69
2022/12/28 11:12:16;;;;;;;8.45;5.63;;;;;;;7.69;100.00;100938.66;5262586;28;20485;-68
2022/12/28 11:14:47;;;;;;;7.90;4.60;;;;;;;7.71;100.00;100939.56;5261691;28;20024;-68
2022/12/28 11:17:22;;;;;;;6.73;4.40;;;;;;;7.69;100.00;100936.06;5261363;28;20032;-69
2022/12/28 11:20:23;;;;;;;9.18;4.97;;;;;;;7.71;100.00;100942.16;5262427;28;20037;-67
2022/12/28 11:22:55;;;;;;;5.78;3.88;;;;;;;7.70;100.00;100918.78;5262077;28;20072;-68
2022/12/28 11:25:33;;;;;;;8.13;5.03;;;;;;;7.74;100.00;100933.47;5262088;28;20068;-69
2022/12/28 11:28:15;;;;;;;8.82;4.70;;;;;;;7.76;100.00;100922.25;5262150;28;20087;-68
2022/12/28 11:30:47;;;;;;;8.93;3.92;;;;;;;7.75;100.00;100912.72;5262275;28;20468;-68
2022/12/28 11:33:39;;;;;;;13.55;4.28;;;;;;;7.75;100.00;100917.91;5262056;28;20068;-69
2022/12/28 11:36:16;;;;;;;8.65;3.50;;;;;;;7.75;100.00;100912.72;5262313;28;20029;-68
2022/12/28 11:38:50;;;;;;;8.73;3.92;;;;;;;7.76;100.00;100887.63;5261940;28;20033;-68
2022/12/28 11:41:29;;;;;;;9.20;3.67;;;;;;;7.78;100.00;100896.31;5261254;28;20029;-68
2022/12/28 11:44:06;;;;;;;7.07;3.60;;;;;;;7.74;100.00;100912.72;5262093;28;20033;-69
2022/12/28 11:46:38;;;;;;;7.60;4.22;;;;;;;7.77;100.00;100891.97;5262095;28;20021;-69
2022/12/28 11:49:29;;;;;;;11.00;4.45;;;;;;;7.75;100.00;100889.38;5261792;28;20087;-69
2022/12/28 11:52:15;;;;;;;6.47;3.42;;;;;;;7.75;100.00;100889.38;5261359;28;20021;-69
2022/12/28 11:54:57;;;;;;;10.25;4.32;;;;;;;7.77;100.00;100887.63;5261930;28;20535;-68
2022/12/28 11:57:37;;;;;;;11.37;5.00;;;;;;;7.74;100.00;100879.00;5262211;28;20036;-68
2022/12/28 12:00:18;;;;;;;4.82;3.65;;;;;;;7.74;100.00;100853.91;5262187;28;20362;-68
2022/12/28 12:02:52;;;;;;;7.00;3.70;;;;;;;7.71;100.00;100864.31;5262416;28;20411;-68
2022/12/28 12:05:35;;;;;;;10.98;4.10;;;;;;;7.76;100.00;100854.78;5261253;28;20036;-67
2022/12/28 12:08:16;;;;;;;8.77;3.78;;;;;;;7.71;100.00;100861.72;5261767;28;20036;-68
2022/12/28 12:11:16;;;;;;;6.15;3.53;;;;;;;7.72;100.00;100850.44;5262274;28;20127;-68
2022/12/28 12:13:50;;;;;;;9.82;3.53;;;;;;;7.72;100.00;100834.88;5258756;28;20044;-68
2022/12/28 12:16:25;;;;;;;6.18;3.40;;;;;;;7.73;100.00;100844.41;5266079;28;20045;-69
2022/12/28 12:18:58;;;;;;;9.70;3.85;;;;;;;7.71;100.00;100838.34;5265720;28;20097;-70